Time;durP1;ratioP1;P1;durP2;ratioP2;P2;SDS_P1;SDS_P2;PMS_P1;PMS_P2;Temp;Humidity;BMP_temperature;BMP_pressure;BME280_temperature;BME280_humidity;BME280_pressure;Samples;Min_cycle;Max_cycle;Signal;HPM_P1;HPM_P2
2023/05/22 00:00:23;;;;;;;98.43;59.45;;;17.20;99.90;;;;;;5106817;28;20040;-53
2023/05/22 00:02:49;;;;;;;99.95;57.13;;;17.20;99.90;;;;;;5109548;28;20027;-56
2023/05/22 00:05:17;;;;;;;100.75;58.78;;;17.20;99.90;;;;;;5107393;28;20023;-52
2023/05/22 00:07:43;;;;;;;100.50;57.17;;;17.20;99.90;;;;;;5107012;28;20028;-53
2023/05/22 00:10:09;;;;;;;102.90;57.75;;;17.30;99.90;;;;;;5105773;28;20378;-52
2023/05/22 00:12:34;;;;;;;99.22;56.45;;;17.30;99.90;;;;;;5106301;28;20019;-56
2023/05/22 00:15:00;;;;;;;100.45;58.83;;;17.30;99.90;;;;;;5109854;28;20042;-57
2023/05/22 00:17:26;;;;;;;106.82;57.50;;;17.30;99.90;;;;;;5104261;28;20031;-58
2023/05/22 00:19:54;;;;;;;94.50;57.13;;;17.30;99.90;;;;;;5107697;28;20066;-57
2023/05/22 00:22:19;;;;;;;93.20;56.22;;;17.30;99.90;;;;;;5107439;28;20019;-56
2023/05/22 00:24:45;;;;;;;89.25;54.67;;;17.30;99.90;;;;;;5108232;28;20046;-54
2023/05/22 00:27:11;;;;;;;102.97;55.90;;;17.30;99.90;;;;;;5105872;28;20024;-57
2023/05/22 00:29:36;;;;;;;94.38;54.72;;;17.30;99.90;;;;;;5105819;28;20393;-59
2023/05/22 00:32:02;;;;;;;89.10;52.20;;;17.30;99.90;;;;;;5102063;28;20421;-56
2023/05/22 00:34:27;;;;;;;84.75;51.80;;;17.20;99.90;;;;;;5107977;28;20058;-55
2023/05/22 00:36:53;;;;;;;95.10;54.85;;;17.20;99.90;;;;;;5107068;28;20023;-58
2023/05/22 00:39:19;;;;;;;88.13;49.95;;;17.20;99.90;;;;;;5106600;28;20035;-51
2023/05/22 00:41:44;;;;;;;84.82;51.50;;;17.20;99.90;;;;;;5107556;28;20024;-57
2023/05/22 00:44:10;;;;;;;80.20;48.53;;;17.10;99.90;;;;;;5109245;28;20038;-51
2023/05/22 00:46:36;;;;;;;87.30;50.30;;;17.10;99.90;;;;;;5104509;28;20028;-53
2023/05/22 00:49:02;;;;;;;85.30;50.50;;;17.00;99.90;;;;;;5104117;27;20034;-57
2023/05/22 00:51:28;;;;;;;87.13;50.95;;;16.80;99.90;;;;;;5102796;28;20020;-54
2023/05/22 00:53:54;;;;;;;84.60;50.45;;;16.80;99.90;;;;;;5105519;28;20457;-54
2023/05/22 00:56:20;;;;;;;87.00;50.50;;;16.70;99.90;;;;;;5107806;28;20542;-57
2023/05/22 00:58:46;;;;;;;81.18;48.80;;;16.60;99.90;;;;;;5108667;28;20024;-56
2023/05/22 01:01:13;;;;;;;86.90;50.42;;;16.60;99.90;;;;;;5106371;28;20036;-56
2023/05/22 01:03:43;;;;;;;76.50;48.80;;;16.60;99.90;;;;;;5105498;28;20536;-56
2023/05/22 01:06:20;;;;;;;84.68;49.67;;;16.60;99.90;;;;;;5105140;28;20028;-58
2023/05/22 01:08:46;;;;;;;87.30;49.72;;;16.50;99.90;;;;;;5107438;28;20019;-56
2023/05/22 01:11:40;;;;;;;83.80;50.53;;;16.50;99.90;;;;;;5107723;28;20019;-56
2023/05/22 01:14:24;;;;;;;81.72;47.95;;;16.40;99.90;;;;;;5075193;28;20038;-58
2023/05/22 01:17:07;;;;;;;77.60;46.72;;;16.50;99.90;;;;;;5103016;28;20424;-56
2023/05/22 01:19:52;;;;;;;75.30;44.10;;;16.50;99.90;;;;;;5106379;28;20076;-56
2023/05/22 01:22:24;;;;;;;72.63;43.60;;;16.60;99.90;;;;;;5107147;28;20080;-59
2023/05/22 01:24:53;;;;;;;64.68;41.30;;;16.70;99.90;;;;;;5106277;28;20366;-58
2023/05/22 01:27:36;;;;;;;66.85;40.88;;;16.70;99.90;;;;;;5106056;28;20024;-57
2023/05/22 01:30:40;;;;;;;70.90;42.67;;;16.70;99.90;;;;;;5104987;28;20059;-57
2023/05/22 01:33:08;;;;;;;65.63;40.10;;;16.70;99.90;;;;;;5104550;28;20023;-53
2023/05/22 01:35:37;;;;;;;66.68;40.13;;;16.70;99.90;;;;;;5107818;28;20023;-53
2023/05/22 01:38:02;;;;;;;65.43;42.40;;;16.80;99.90;;;;;;5105887;28;20445;-56
2023/05/22 01:40:29;;;;;;;70.47;41.50;;;16.70;99.90;;;;;;5108711;28;20213;-55
2023/05/22 01:42:55;;;;;;;65.68;40.97;;;16.80;99.90;;;;;;5108031;28;20111;-57
2023/05/22 01:45:21;;;;;;;70.38;39.10;;;16.80;99.90;;;;;;5106115;28;20095;-61
2023/05/22 01:47:47;;;;;;;63.60;39.53;;;16.80;99.90;;;;;;5110601;28;20028;-55
2023/05/22 01:50:13;;;;;;;67.38;40.92;;;16.80;99.90;;;;;;5111077;28;20023;-56
2023/05/22 01:53:03;;;;;;;63.78;40.13;;;16.80;99.90;;;;;;5109770;28;20141;-56
2023/05/22 01:55:56;;;;;;;70.72;43.30;;;16.80;99.90;;;;;;5107200;28;20030;-55
2023/05/22 01:58:48;;;;;;;68.65;40.63;;;16.70;99.90;;;;;;5107613;28;20428;-58
2023/05/22 02:01:18;;;;;;;70.55;44.17;;;16.70;99.90;;;;;;5107735;28;20034;-56
2023/05/22 02:03:45;;;;;;;68.10;42.90;;;16.60;99.90;;;;;;5110659;28;20028;-58
2023/05/22 02:06:12;;;;;;;68.68;43.67;;;16.60;99.90;;;;;;5110453;28;20507;-58
2023/05/22 02:08:40;;;;;;;76.88;44.78;;;16.60;99.90;;;;;;5112549;28;20042;-59
2023/05/22 02:11:07;;;;;;;71.93;43.38;;;16.60;99.90;;;;;;5111655;28;20021;-60
2023/05/22 02:13:33;;;;;;;73.65;44.17;;;16.50;99.90;;;;;;5110631;28;20027;-60
2023/05/22 02:16:00;;;;;;;76.18;46.15;;;16.50;99.90;;;;;;5110587;28;20031;-58
2023/05/22 02:18:29;;;;;;;69.53;43.67;;;16.50;99.90;;;;;;5109686;28;20384;-59
2023/05/22 02:20:59;;;;;;;71.05;43.20;;;16.50;99.90;;;;;;5103633;28;20122;-58
2023/05/22 02:23:25;;;;;;;73.95;46.88;;;16.50;99.90;;;;;;5106120;28;20055;-58
2023/05/22 02:25:51;;;;;;;68.05;43.55;;;16.50;99.90;;;;;;5111204;28;20053;-59
2023/05/22 02:28:16;;;;;;;72.63;44.88;;;16.50;99.90;;;;;;5110987;28;20511;-58
2023/05/22 02:30:42;;;;;;;78.10;44.90;;;16.30;99.90;;;;;;5107284;28;20023;-58
2023/05/22 02:33:08;;;;;;;80.97;45.33;;;16.20;99.90;;;;;;5107240;28;20034;-59
2023/05/22 02:35:34;;;;;;;80.68;48.72;;;16.10;99.90;;;;;;5104501;28;20477;-58
2023/05/22 02:37:59;;;;;;;90.28;50.08;;;16.00;99.90;;;;;;5108175;28;20489;-59
2023/05/22 02:40:25;;;;;;;77.78;45.90;;;15.90;99.90;;;;;;5106427;28;20077;-56
2023/05/22 02:42:50;;;;;;;78.85;45.10;;;15.80;99.90;;;;;;5108005;28;20457;-58
2023/05/22 02:45:16;;;;;;;81.60;48.42;;;15.80;99.90;;;;;;5105918;28;20027;-60
2023/05/22 02:47:41;;;;;;;89.00;51.58;;;15.70;99.90;;;;;;5106399;28;20125;-52
2023/05/22 02:50:07;;;;;;;95.97;51.58;;;15.70;99.90;;;;;;5107777;28;20062;-58
2023/05/22 02:52:34;;;;;;;88.82;52.85;;;15.70;99.90;;;;;;5108502;28;20035;-58
2023/05/22 02:54:59;;;;;;;103.97;54.60;;;15.60;99.90;;;;;;5107727;28;20057;-60
2023/05/22 02:57:25;;;;;;;88.40;51.65;;;15.60;99.90;;;;;;5106864;28;20031;-60
2023/05/22 02:59:51;;;;;;;95.10;52.90;;;15.60;99.90;;;;;;5107485;28;20020;-57
2023/05/22 03:02:18;;;;;;;96.45;53.13;;;15.50;99.90;;;;;;5106170;28;20508;-58
2023/05/22 03:04:44;;;;;;;91.57;50.28;;;15.50;99.90;;;;;;5106292;28;20027;-59
2023/05/22 03:07:11;;;;;;;87.22;52.40;;;15.50;99.90;;;;;;5109138;28;20046;-60
2023/05/22 03:09:36;;;;;;;95.28;54.08;;;15.50;99.90;;;;;;5107619;28;20015;-57
2023/05/22 03:12:03;;;;;;;84.85;49.85;;;15.40;99.90;;;;;;5105936;28;20042;-60
2023/05/22 03:14:29;;;;;;;86.57;49.53;;;15.50;99.90;;;;;;5107294;28;20543;-59
2023/05/22 03:16:55;;;;;;;96.78;54.20;;;15.50;99.90;;;;;;5107775;28;20051;-58
2023/05/22 03:19:21;;;;;;;111.72;60.90;;;15.50;99.90;;;;;;5104627;28;20124;-59
2023/05/22 03:21:48;;;;;;;110.00;59.45;;;15.60;99.90;;;;;;5110050;28;20423;-58
2023/05/22 03:24:14;;;;;;;94.32;52.17;;;15.60;99.90;;;;;;5110364;28;20020;-58
2023/05/22 03:26:40;;;;;;;97.80;52.78;;;15.50;99.90;;;;;;5101790;28;20039;-57
2023/05/22 03:29:06;;;;;;;117.90;60.33;;;15.50;99.90;;;;;;5107335;28;20028;-54
2023/05/22 03:31:32;;;;;;;115.50;63.70;;;15.50;99.90;;;;;;5107116;28;20394;-54
2023/05/22 03:33:58;;;;;;;118.68;63.33;;;15.60;99.90;;;;;;5107927;28;20098;-53
2023/05/22 03:36:24;;;;;;;106.13;59.72;;;15.70;99.90;;;;;;5109423;28;20118;-55
2023/05/22 03:38:50;;;;;;;125.50;65.13;;;15.70;99.90;;;;;;5069559;28;1045306;-54
2023/05/22 03:41:16;;;;;;;130.43;66.53;;;15.80;99.90;;;;;;5107390;28;20032;-55
2023/05/22 03:43:42;;;;;;;111.88;64.43;;;15.90;99.90;;;;;;5102101;28;20485;-53
2023/05/22 03:46:09;;;;;;;106.18;61.13;;;15.80;99.90;;;;;;5108012;28;20027;-52
2023/05/22 03:48:35;;;;;;;106.88;60.05;;;15.80;99.90;;;;;;5108927;28;20500;-53
2023/05/22 03:51:01;;;;;;;105.75;57.17;;;15.90;99.90;;;;;;5110132;28;20059;-54
2023/05/22 03:53:26;;;;;;;99.97;57.40;;;15.90;99.90;;;;;;5105446;27;20051;-54
2023/05/22 03:55:52;;;;;;;95.43;54.53;;;15.90;99.90;;;;;;5106613;28;20550;-52
2023/05/22 03:58:17;;;;;;;90.07;53.83;;;15.90;99.90;;;;;;5105161;28;20036;-57
2023/05/22 04:00:45;;;;;;;85.60;50.42;;;15.90;99.90;;;;;;5105610;28;20412;-54
2023/05/22 04:03:11;;;;;;;87.35;49.78;;;15.90;99.90;;;;;;5105328;28;20110;-52
2023/05/22 04:05:40;;;;;;;80.93;50.42;;;15.90;99.90;;;;;;5108160;28;20482;-59
2023/05/22 04:08:06;;;;;;;82.97;48.72;;;15.90;99.90;;;;;;5108363;28;20115;-58
2023/05/22 04:10:31;;;;;;;78.68;46.13;;;15.90;99.90;;;;;;5109172;28;20157;-58
2023/05/22 04:12:58;;;;;;;75.47;46.63;;;15.90;99.90;;;;;;5109530;28;20031;-53
2023/05/22 04:15:24;;;;;;;75.40;44.08;;;15.90;99.90;;;;;;5105546;28;20034;-57
2023/05/22 04:17:50;;;;;;;73.40;43.92;;;15.90;99.90;;;;;;5104070;28;20027;-60
2023/05/22 04:20:16;;;;;;;65.68;39.35;;;15.90;99.90;;;;;;5103366;28;20024;-59
2023/05/22 04:22:44;;;;;;;69.43;43.17;;;15.90;99.90;;;;;;5108120;28;20028;-57
2023/05/22 04:25:10;;;;;;;73.97;44.03;;;15.90;99.90;;;;;;5110295;28;20027;-59
2023/05/22 04:27:36;;;;;;;70.28;42.63;;;15.90;99.90;;;;;;5108951;28;20024;-59
2023/05/22 04:30:02;;;;;;;66.43;40.47;;;15.90;99.90;;;;;;5108357;28;20551;-59
2023/05/22 04:32:28;;;;;;;74.55;44.03;;;15.90;99.90;;;;;;5102773;28;20031;-57
2023/05/22 04:34:53;;;;;;;73.05;45.38;;;15.90;99.90;;;;;;5105821;28;20015;-57
2023/05/22 04:37:19;;;;;;;69.88;43.58;;;15.80;99.90;;;;;;5106071;28;20025;-59
2023/05/22 04:39:45;;;;;;;70.72;42.80;;;15.80;99.90;;;;;;5109542;28;20030;-54
2023/05/22 04:42:13;;;;;;;72.25;44.08;;;15.80;99.90;;;;;;5102550;28;20157;-58
2023/05/22 04:44:40;;;;;;;79.25;43.25;;;15.90;99.90;;;;;;5104197;28;20541;-58
2023/05/22 04:47:10;;;;;;;74.68;45.05;;;15.90;99.90;;;;;;5103644;28;20027;-57
2023/05/22 04:49:36;;;;;;;74.65;44.72;;;15.90;99.90;;;;;;5106857;28;20115;-57
2023/05/22 04:52:03;;;;;;;75.20;44.30;;;15.90;99.90;;;;;;5104495;28;20015;-53
2023/05/22 04:54:29;;;;;;;75.85;44.92;;;15.90;99.90;;;;;;5103396;28;20117;-55
2023/05/22 04:56:54;;;;;;;76.63;45.80;;;15.90;99.90;;;;;;5096313;28;20016;-57
2023/05/22 04:59:22;;;;;;;79.18;46.97;;;15.90;99.90;;;;;;5101898;28;20461;-53
2023/05/22 05:01:49;;;;;;;80.32;49.13;;;16.00;99.90;;;;;;5100769;27;20034;-54
2023/05/22 05:04:15;;;;;;;79.53;48.95;;;16.00;99.90;;;;;;5103729;28;20031;-52
2023/05/22 05:06:42;;;;;;;83.07;50.08;;;16.10;99.90;;;;;;5108506;28;20054;-59
2023/05/22 05:09:07;;;;;;;78.10;49.70;;;16.10;99.90;;;;;;5096069;28;20401;-58
2023/05/22 05:11:33;;;;;;;85.38;51.28;;;16.10;99.90;;;;;;5104177;28;20031;-58
2023/05/22 05:13:59;;;;;;;84.20;51.38;;;16.20;99.90;;;;;;5103156;28;20507;-59
2023/05/22 05:16:25;;;;;;;86.80;50.47;;;16.20;99.90;;;;;;5106603;28;20019;-59
2023/05/22 05:18:51;;;;;;;89.05;51.80;;;16.20;99.90;;;;;;5109346;28;20564;-58
2023/05/22 05:21:17;;;;;;;102.70;58.08;;;16.20;99.90;;;;;;5106582;28;20027;-58
2023/05/22 05:23:42;;;;;;;90.40;52.58;;;16.20;99.90;;;;;;5102340;28;20497;-57
2023/05/22 05:26:08;;;;;;;114.43;59.95;;;16.20;99.90;;;;;;5103190;28;20034;-57
2023/05/22 05:28:33;;;;;;;101.80;57.28;;;16.20;99.90;;;;;;5099852;28;20586;-57
2023/05/22 05:31:00;;;;;;;111.90;60.92;;;16.20;99.90;;;;;;5108140;28;20054;-58
2023/05/22 05:33:26;;;;;;;108.18;58.92;;;16.20;99.90;;;;;;5105049;28;20023;-56
2023/05/22 05:35:52;;;;;;;106.88;58.15;;;16.20;99.90;;;;;;5101854;28;20070;-55
2023/05/22 05:38:18;;;;;;;112.75;59.97;;;16.20;99.90;;;;;;5101356;28;20918;-54
2023/05/22 05:40:44;;;;;;;106.80;58.83;;;16.20;99.90;;;;;;5099927;28;20044;-54
2023/05/22 05:43:10;;;;;;;111.57;59.72;;;16.20;99.90;;;;;;5100904;28;20546;-55
2023/05/22 05:45:35;;;;;;;114.25;58.45;;;16.20;99.90;;;;;;5098927;28;20040;-56
2023/05/22 05:48:01;;;;;;;114.47;58.67;;;16.20;99.90;;;;;;5105106;28;20084;-57
2023/05/22 05:50:26;;;;;;;115.28;59.22;;;16.20;99.90;;;;;;5107488;28;20482;-58
2023/05/22 05:52:52;;;;;;;111.68;59.58;;;16.20;99.90;;;;;;5104147;28;20864;-54
2023/05/22 05:55:18;;;;;;;119.00;59.95;;;16.20;99.90;;;;;;5105819;28;20023;-58
2023/05/22 05:57:43;;;;;;;109.97;55.85;;;16.10;99.90;;;;;;5103683;28;20035;-59
2023/05/22 06:00:10;;;;;;;114.03;59.67;;;16.20;99.90;;;;;;5102365;28;20516;-56
2023/05/22 06:02:36;;;;;;;105.18;55.38;;;16.20;99.90;;;;;;5097560;28;20024;-54
2023/05/22 06:05:04;;;;;;;105.32;55.83;;;16.20;99.90;;;;;;5108313;28;20501;-54
2023/05/22 06:07:30;;;;;;;104.28;55.88;;;16.20;99.90;;;;;;5107709;28;20072;-57
2023/05/22 06:09:59;;;;;;;102.85;53.70;;;16.20;99.90;;;;;;5103761;28;20093;-58
2023/05/22 06:12:25;;;;;;;96.25;52.80;;;16.20;99.90;;;;;;5107010;28;20020;-56
2023/05/22 06:14:51;;;;;;;111.63;59.03;;;16.20;99.90;;;;;;5104215;28;20031;-58
2023/05/22 06:17:16;;;;;;;113.38;56.95;;;16.20;99.90;;;;;;5104873;28;20680;-56
2023/05/22 06:19:42;;;;;;;111.05;59.72;;;16.30;99.90;;;;;;5108984;28;20031;-56
2023/05/22 06:22:07;;;;;;;107.30;57.63;;;16.40;99.90;;;;;;5109413;28;20053;-53
2023/05/22 06:24:33;;;;;;;111.55;59.90;;;16.40;99.90;;;;;;5109820;28;20035;-55
2023/05/22 06:26:59;;;;;;;112.60;61.47;;;16.40;99.90;;;;;;5109261;28;20020;-57
2023/05/22 06:29:24;;;;;;;113.72;60.90;;;16.50;99.90;;;;;;5108606;28;20039;-56
2023/05/22 06:31:50;;;;;;;106.55;55.75;;;16.40;99.90;;;;;;5104111;28;20877;-57
2023/05/22 06:34:16;;;;;;;118.50;63.05;;;16.60;99.90;;;;;;5109589;28;20091;-54
2023/05/22 06:36:41;;;;;;;123.38;64.15;;;16.60;99.90;;;;;;5112815;28;20096;-59
2023/05/22 06:39:07;;;;;;;120.63;65.05;;;16.60;99.90;;;;;;5112654;28;20044;-57
2023/05/22 06:41:34;;;;;;;121.05;62.50;;;16.60;99.90;;;;;;5112656;28;20080;-61
2023/05/22 06:44:01;;;;;;;107.47;58.45;;;16.70;99.90;;;;;;5112395;28;20465;-58
2023/05/22 06:46:26;;;;;;;108.07;56.97;;;16.80;99.90;;;;;;5111398;28;20027;-57
2023/05/22 06:48:53;;;;;;;102.47;53.13;;;16.80;99.90;;;;;;5112766;28;20023;-60
2023/05/22 06:51:19;;;;;;;110.90;58.38;;;16.90;99.90;;;;;;5111872;28;20007;-58
2023/05/22 06:53:45;;;;;;;104.43;54.53;;;17.10;99.90;;;;;;5108171;28;20556;-55
2023/05/22 06:56:10;;;;;;;118.32;61.28;;;17.20;99.90;;;;;;5109885;27;20028;-57
2023/05/22 06:58:36;;;;;;;116.90;60.53;;;17.10;99.90;;;;;;5110711;28;20107;-60
2023/05/22 07:01:01;;;;;;;112.03;62.53;;;17.30;99.90;;;;;;5107950;28;20040;-57
2023/05/22 07:03:27;;;;;;;103.35;58.13;;;17.30;99.90;;;;;;5111211;28;20084;-58
2023/05/22 07:05:55;;;;;;;99.43;59.15;;;17.40;99.90;;;;;;5108583;28;20085;-58
2023/05/22 07:08:21;;;;;;;106.07;60.25;;;17.40;99.90;;;;;;5107279;28;20024;-57
2023/05/22 07:10:47;;;;;;;112.30;63.13;;;17.50;99.90;;;;;;5106274;28;20028;-57
2023/05/22 07:13:12;;;;;;;104.22;59.60;;;17.40;99.90;;;;;;5109600;28;20516;-57
2023/05/22 07:15:38;;;;;;;104.78;59.13;;;17.30;99.90;;;;;;5109160;28;20028;-59
2023/05/22 07:18:03;;;;;;;101.15;56.50;;;17.40;99.90;;;;;;5111222;28;20570;-60
2023/05/22 07:20:29;;;;;;;96.35;54.65;;;17.50;99.90;;;;;;5108038;28;20031;-58
2023/05/22 07:22:54;;;;;;;100.68;55.13;;;17.60;99.90;;;;;;5110128;28;20023;-58
2023/05/22 07:25:20;;;;;;;91.25;52.88;;;17.70;99.90;;;;;;5107880;28;20032;-58
2023/05/22 07:27:45;;;;;;;91.85;52.60;;;17.70;99.90;;;;;;5110336;28;20107;-58
2023/05/22 07:30:11;;;;;;;94.28;54.80;;;17.80;99.90;;;;;;5109458;28;20024;-55
2023/05/22 07:32:37;;;;;;;91.47;51.25;;;17.90;99.90;;;;;;5109002;28;20031;-58
2023/05/22 07:35:03;;;;;;;96.47;53.47;;;17.90;99.90;;;;;;5106091;28;20028;-58
2023/05/22 07:37:30;;;;;;;82.90;51.30;;;18.00;99.90;;;;;;5110362;28;20111;-58
2023/05/22 07:39:56;;;;;;;89.93;52.45;;;18.00;99.90;;;;;;5111035;28;20366;-52
2023/05/22 07:42:22;;;;;;;83.22;51.90;;;18.00;99.90;;;;;;5109098;28;20034;-57
2023/05/22 07:44:47;;;;;;;94.97;53.33;;;18.00;99.90;;;;;;5106554;28;20062;-57
2023/05/22 07:47:13;;;;;;;88.68;54.15;;;18.00;99.90;;;;;;5106085;28;20051;-57
2023/05/22 07:49:38;;;;;;;90.07;51.65;;;18.00;99.90;;;;;;5104398;28;20028;-56
2023/05/22 07:52:04;;;;;;;89.45;52.90;;;18.10;99.90;;;;;;5108679;28;20054;-58
2023/05/22 07:54:30;;;;;;;95.35;56.95;;;18.10;99.90;;;;;;5110132;28;20020;-56
2023/05/22 07:56:56;;;;;;;92.72;55.35;;;18.10;99.90;;;;;;5106007;28;20390;-56
2023/05/22 07:59:23;;;;;;;95.55;52.03;;;18.20;99.90;;;;;;5106605;28;20020;-57
2023/05/22 08:01:49;;;;;;;96.50;55.78;;;18.30;99.90;;;;;;5107729;28;20110;-56
2023/05/22 08:04:14;;;;;;;96.18;56.85;;;18.40;99.90;;;;;;5111507;28;20020;-58
2023/05/22 08:06:42;;;;;;;100.53;58.30;;;18.50;99.90;;;;;;5106938;28;20023;-56
2023/05/22 08:09:08;;;;;;;98.07;59.08;;;18.20;99.90;;;;;;5107507;28;20098;-58
2023/05/22 08:11:36;;;;;;;106.30;61.13;;;18.40;99.90;;;;;;5108134;28;20508;-57
2023/05/22 08:14:02;;;;;;;106.07;58.40;;;18.40;99.90;;;;;;5108203;27;20055;-57
2023/05/22 08:16:27;;;;;;;104.35;59.90;;;18.50;99.90;;;;;;5106711;28;20062;-60
2023/05/22 08:18:53;;;;;;;108.03;63.58;;;18.60;99.90;;;;;;5107439;28;20076;-56
2023/05/22 08:21:18;;;;;;;128.60;73.70;;;18.60;99.90;;;;;;5103093;28;20063;-57
2023/05/22 08:23:44;;;;;;;124.82;68.35;;;18.60;99.90;;;;;;5107587;28;20111;-58
2023/05/22 08:26:09;;;;;;;114.05;67.10;;;18.60;99.90;;;;;;5106981;28;20023;-58
2023/05/22 08:28:36;;;;;;;121.05;68.88;;;18.70;99.90;;;;;;5109787;28;20037;-58
2023/05/22 08:31:02;;;;;;;118.43;69.22;;;18.80;99.90;;;;;;5104464;28;20043;-58
2023/05/22 08:33:27;;;;;;;114.38;64.50;;;18.80;99.90;;;;;;5108525;28;20047;-56
2023/05/22 08:35:53;;;;;;;113.70;68.78;;;18.90;99.90;;;;;;5104510;28;20028;-58
2023/05/22 08:38:18;;;;;;;114.80;64.07;;;19.00;99.90;;;;;;5106865;28;20095;-56
2023/05/22 08:40:48;;;;;;;107.72;65.55;;;19.00;99.90;;;;;;5108706;28;20042;-58
2023/05/22 08:43:14;;;;;;;110.50;65.38;;;19.10;99.90;;;;;;5107630;28;20031;-58
2023/05/22 08:45:41;;;;;;;106.00;61.42;;;19.20;99.90;;;;;;5104900;28;20020;-57
2023/05/22 08:48:13;;;;;;;106.32;62.90;;;19.20;99.90;;;;;;5107536;28;20076;-59
2023/05/22 08:50:42;;;;;;;110.38;61.08;;;19.30;99.90;;;;;;5107857;28;20073;-56
2023/05/22 08:53:12;;;;;;;98.22;58.17;;;19.40;99.90;;;;;;5108657;28;20027;-56
2023/05/22 08:55:38;;;;;;;95.75;57.20;;;19.40;99.90;;;;;;5102818;28;20020;-58
2023/05/22 08:58:04;;;;;;;91.00;56.85;;;19.40;99.90;;;;;;5108319;28;20520;-59
2023/05/22 09:00:31;;;;;;;91.28;56.50;;;19.30;99.90;;;;;;5104853;28;20152;-53
2023/05/22 09:02:57;;;;;;;94.53;53.13;;;19.30;99.90;;;;;;5103961;28;20450;-57
2023/05/22 09:05:25;;;;;;;96.00;54.90;;;19.20;99.90;;;;;;5107823;28;20445;-53
2023/05/22 09:07:52;;;;;;;88.05;51.65;;;19.30;99.90;;;;;;5108576;28;20030;-57
2023/05/22 09:10:18;;;;;;;96.35;53.63;;;19.30;99.90;;;;;;5106779;28;20015;-58
2023/05/22 09:13:03;;;;;;;92.72;52.47;;;19.20;99.90;;;;;;5106587;28;20401;-54
2023/05/22 09:15:31;;;;;;;82.18;47.58;;;19.30;99.90;;;;;;5106157;28;20022;-55
2023/05/22 09:17:57;;;;;;;83.03;49.78;;;19.20;99.90;;;;;;5108998;28;20115;-56
2023/05/22 09:20:23;;;;;;;87.68;52.63;;;19.20;99.90;;;;;;5106014;28;20549;-54
2023/05/22 09:22:48;;;;;;;101.82;61.25;;;19.10;99.90;;;;;;5103840;28;20111;-58
2023/05/22 09:25:18;;;;;;;94.78;57.88;;;19.00;99.90;;;;;;5106529;28;20024;-58
2023/05/22 09:27:47;;;;;;;104.63;61.38;;;19.00;99.90;;;;;;5109376;28;20481;-57
2023/05/22 09:30:17;;;;;;;99.57;58.20;;;19.10;99.90;;;;;;5105269;28;20084;-59
2023/05/22 09:32:43;;;;;;;93.55;54.70;;;19.20;99.90;;;;;;5106168;28;20076;-58
2023/05/22 09:35:09;;;;;;;103.28;58.78;;;19.30;99.90;;;;;;5109423;28;20015;-59
2023/05/22 09:37:35;;;;;;;104.88;58.70;;;19.40;99.90;;;;;;5109484;28;20050;-60
2023/05/22 09:40:06;;;;;;;108.07;59.08;;;19.10;99.90;;;;;;5107121;28;20023;-56
2023/05/22 09:42:34;;;;;;;111.10;64.75;;;19.00;99.90;;;;;;5108154;28;20034;-59
2023/05/22 09:45:04;;;;;;;112.53;65.40;;;18.90;99.90;;;;;;5108386;28;20020;-59
2023/05/22 09:47:30;;;;;;;118.72;65.45;;;18.80;99.90;;;;;;5109271;28;20040;-59
2023/05/22 09:49:57;;;;;;;115.63;64.70;;;18.90;99.90;;;;;;5109544;28;20023;-58
2023/05/22 09:52:23;;;;;;;115.45;65.72;;;18.90;99.90;;;;;;5105871;28;20062;-59
2023/05/22 09:54:54;;;;;;;123.50;68.22;;;18.90;99.90;;;;;;5107386;28;20047;-60
2023/05/22 09:57:22;;;;;;;118.78;68.22;;;18.80;99.90;;;;;;5104668;28;20023;-59
2023/05/22 09:59:53;;;;;;;119.38;66.07;;;18.80;99.90;;;;;;5106992;28;20095;-59
2023/05/22 10:02:23;;;;;;;100.75;58.55;;;18.90;99.90;;;;;;5108479;28;20020;-59
2023/05/22 10:04:50;;;;;;;105.05;59.53;;;18.90;99.90;;;;;;5103469;28;20239;-59
2023/05/22 10:07:22;;;;;;;96.65;54.75;;;18.80;99.90;;;;;;5104383;27;20074;-57
2023/05/22 10:10:00;;;;;;;120.50;62.50;;;18.80;99.90;;;;;;5108567;28;20028;-52
2023/05/22 10:12:27;;;;;;;129.73;68.47;;;18.90;99.90;;;;;;5107909;28;20062;-55
2023/05/22 10:14:53;;;;;;;122.70;68.18;;;18.70;99.90;;;;;;5109071;28;20031;-55
2023/05/22 10:17:20;;;;;;;121.22;67.70;;;18.70;99.90;;;;;;5109289;28;20015;-54
2023/05/22 10:19:46;;;;;;;126.25;69.35;;;18.80;99.90;;;;;;5111643;28;20050;-56
2023/05/22 10:22:19;;;;;;;130.32;65.93;;;18.80;99.90;;;;;;5111456;28;20474;-59
2023/05/22 10:24:46;;;;;;;116.75;64.65;;;18.90;99.90;;;;;;5111936;28;20386;-58
2023/05/22 10:27:13;;;;;;;119.57;64.82;;;18.80;99.90;;;;;;5108398;28;20031;-58
2023/05/22 10:29:55;;;;;;;112.28;64.47;;;18.90;99.90;;;;;;5110927;28;20126;-59
2023/05/22 10:32:41;;;;;;;127.70;64.90;;;18.80;99.90;;;;;;5111549;28;20075;-59
2023/05/22 10:35:17;;;;;;;130.95;66.03;;;18.90;99.90;;;;;;5111510;28;20020;-56
2023/05/22 10:37:46;;;;;;;122.63;64.78;;;18.90;99.90;;;;;;5107853;28;20486;-56
2023/05/22 10:40:17;;;;;;;117.10;61.28;;;18.90;99.90;;;;;;5107019;28;20434;-58
2023/05/22 10:42:43;;;;;;;118.10;63.30;;;18.90;99.90;;;;;;5108087;28;20035;-56
2023/05/22 10:45:10;;;;;;;126.25;64.25;;;18.80;99.90;;;;;;5111742;28;20618;-57
2023/05/22 10:47:36;;;;;;;130.05;66.85;;;18.90;99.90;;;;;;5107583;28;20484;-56
2023/05/22 10:50:06;;;;;;;128.82;67.70;;;19.00;99.90;;;;;;5111677;28;20085;-55
2023/05/22 10:52:31;;;;;;;127.25;67.35;;;19.20;99.90;;;;;;5112032;28;20031;-59
2023/05/22 10:54:59;;;;;;;131.90;67.15;;;19.30;99.90;;;;;;5113001;28;20402;-58
2023/05/22 10:57:24;;;;;;;137.50;71.05;;;19.30;99.90;;;;;;5108287;28;20028;-58
2023/05/22 10:59:50;;;;;;;130.35;66.03;;;19.30;99.90;;;;;;5108208;28;20039;-58
2023/05/22 11:02:20;;;;;;;122.88;70.18;;;19.30;99.90;;;;;;5105401;28;20645;-59
2023/05/22 11:04:46;;;;;;;129.13;66.55;;;19.40;99.90;;;;;;5109137;28;20027;-59
2023/05/22 11:07:13;;;;;;;114.35;65.22;;;19.40;99.90;;;;;;5105778;28;20020;-54
2023/05/22 11:09:44;;;;;;;119.55;64.22;;;19.40;99.90;;;;;;5111244;28;20023;-55
2023/05/22 11:12:22;;;;;;;124.68;64.72;;;19.50;99.90;;;;;;5108876;28;20022;-55
2023/05/22 11:14:55;;;;;;;121.70;64.95;;;19.30;99.90;;;;;;5106371;28;20026;-56
2023/05/22 11:17:26;;;;;;;120.38;65.15;;;19.40;99.90;;;;;;5108704;28;20027;-58
2023/05/22 11:19:58;;;;;;;120.35;63.65;;;19.50;99.90;;;;;;5109062;28;20024;-58
2023/05/22 11:22:40;;;;;;;120.50;63.15;;;19.70;99.90;;;;;;5110145;28;20034;-58
2023/05/22 11:25:10;;;;;;;124.75;66.45;;;19.70;99.90;;;;;;5100871;28;20039;-59
2023/05/22 11:27:37;;;;;;;129.20;68.38;;;19.50;99.90;;;;;;5102757;28;20048;-59
2023/05/22 11:30:04;;;;;;;123.47;65.28;;;19.60;99.90;;;;;;5107240;28;20027;-59
2023/05/22 11:32:29;;;;;;;124.60;63.38;;;19.60;99.90;;;;;;5104951;28;20034;-59
2023/05/22 11:34:56;;;;;;;132.10;66.55;;;19.70;99.90;;;;;;5103022;28;20476;-53
2023/05/22 11:37:22;;;;;;;129.95;69.05;;;19.90;99.90;;;;;;5108278;28;20026;-54
2023/05/22 11:39:54;;;;;;;126.43;67.95;;;19.70;99.90;;;;;;5106686;28;20031;-58
2023/05/22 11:42:20;;;;;;;146.25;71.35;;;19.90;99.90;;;;;;5107915;28;20019;-59
2023/05/22 11:44:45;;;;;;;116.97;61.08;;;19.70;99.90;;;;;;5108460;28;20058;-62
2023/05/22 11:47:11;;;;;;;122.13;65.15;;;19.80;99.90;;;;;;5106415;28;20085;-59
2023/05/22 11:49:37;;;;;;;123.50;66.25;;;20.00;99.90;;;;;;5107679;28;20481;-60
2023/05/22 11:52:05;;;;;;;135.27;71.00;;;20.20;99.90;;;;;;5106521;28;20103;-59
2023/05/22 11:54:31;;;;;;;132.23;69.40;;;20.50;99.90;;;;;;5102450;28;20020;-57
2023/05/22 11:56:57;;;;;;;137.38;73.78;;;20.60;99.90;;;;;;5105067;28;20023;-58
2023/05/22 11:59:22;;;;;;;131.20;74.25;;;20.40;99.90;;;;;;5104882;28;20395;-59
2023/05/22 12:01:49;;;;;;;134.30;74.93;;;20.30;99.90;;;;;;5106008;27;20110;-59
2023/05/22 12:04:14;;;;;;;129.18;67.70;;;20.30;99.90;;;;;;5109639;27;20077;-59
2023/05/22 12:06:41;;;;;;;116.93;62.92;;;20.40;99.90;;;;;;5105273;28;20023;-59
2023/05/22 12:09:07;;;;;;;121.05;64.93;;;20.70;99.90;;;;;;5107747;28;20028;-54
2023/05/22 12:11:36;;;;;;;124.70;67.90;;;20.90;99.90;;;;;;5105479;28;20055;-56
2023/05/22 12:14:03;;;;;;;119.88;64.60;;;20.70;99.90;;;;;;5104849;28;20134;-54
2023/05/22 12:16:34;;;;;;;115.70;63.03;;;20.80;99.90;;;;;;5104821;28;20051;-56
2023/05/22 12:19:02;;;;;;;105.22;58.20;;;21.10;99.90;;;;;;5106614;28;20103;-58
2023/05/22 12:21:30;;;;;;;101.40;57.85;;;21.30;99.90;;;;;;5108869;27;20051;-54
2023/05/22 12:23:56;;;;;;;106.93;56.47;;;21.70;99.90;;;;;;5101739;28;20482;-53